الصفحة الرئيسية
METAR-TAF:

METAR-TAF

مطار :

أوسييك, كرواتيا

دائرة عرض: 45-27N, خط طول: 018-48E, ارتفاع: 88 متر

مراقبة الطقس الحالي

تاريخ ووقت الإصدار 37 دقيقة قبل الساعة 08:30UTC
ريح 10 عقدة من الجنوب/الجنوب الغربي
درجة الحرارة 17°درجة مئوية
الرطوبة 55%
ضغط 1022 hPa
الرؤية 10 كم أو أكثر
الغيوم لا تقل 1500 م ولا وجود لمزنة ركامية السحاب الأسود

METAR: LDOS 220830Z 21010KT CAVOK 17/08 Q1022

زمن: 11:07 (09:07 UTC)

توقعات

تاريخ ووقت الإصدار 3ساعات و 42 دقيقة قبل الساعة 05:25UTC
التوقعات صالحة من22 الساعة 06 UTC إلى 23 الساعة 06 UTC
ريح 7 عقدة من الجنوب
الرؤية 10 كم أو أكثر
الغيوم لا تقل 1500 م ولا وجود لمزنة ركامية السحاب الأسود

TAF: LDOS 220525Z 2206/2306 18007KT CAVOK TX22/2213Z TN07/2206Z

أرصاد الطقس والتوقعات من أكثر من 4000 مطار (تقارير الطقس للمطار METAR والتنبؤ بالطقس بالمطارTAF).

المحطات المتاحة هي النقط الصفراء والحمراء على الخريطة.

حرك المؤشر فوق النقطة لمعرفة اسم المحطة.

ثم انقر لمعرفة أرصاد وتوقعات الطقس.

لتغيير الخارطة: اضغط على الأزرار الخضراء مع رمز الصليب الأسود للتكبير. على الزر الأخضر مع شرطة للتصغير، أو على الأسهم الخضراء للخرائط المجاورة.


METAR-TAF: